Time,TemperatureF,DewpointF,PressureIn,WindDirection,WindDirectionDegrees,WindSpeedMPH,WindSpeedGustMPH,Humidity,HourlyPrecipIn,Conditions,Clouds,dailyrainin,SoftwareType,DateUTC
2013-04-02 00:01:00,31.7,18.0,30.31,WNW,291,5.4,5.4,58,0.00,,,0.00,TxWx,2013-04-02 05:01:00,
2013-04-02 00:07:00,31.8,18.0,30.31,WNW,286,3.9,3.9,59,0.00,,,0.00,TxWx,2013-04-02 05:07:00,
2013-04-02 00:12:00,31.9,18.0,30.31,West,278,5.4,5.4,60,0.00,,,0.00,TxWx,2013-04-02 05:12:00,
2013-04-02 00:17:00,32.3,17.0,30.31,WNW,285,6.9,6.9,57,0.00,,,0.00,TxWx,2013-04-02 05:17:00,
2013-04-02 00:23:00,32.7,17.0,30.31,WNW,286,8.7,8.7,54,0.00,,,0.00,TxWx,2013-04-02 05:23:00,
2013-04-02 00:28:00,32.7,17.0,30.31,WNW,285,5.7,6.9,54,0.00,,,0.00,TxWx,2013-04-02 05:28:00,
2013-04-02 00:33:00,32.8,15.0,30.32,WNW,289,8.7,9.0,50,0.00,,,0.00,TxWx,2013-04-02 05:33:00,
2013-04-02 00:38:00,32.4,15.0,30.31,WNW,288,7.8,8.4,52,0.00,,,0.00,TxWx,2013-04-02 05:38:00,
2013-04-02 00:43:00,32.1,16.0,30.31,WNW,295,5.7,6.3,54,0.00,,,0.00,TxWx,2013-04-02 05:43:00,
2013-04-02 00:48:00,32.0,15.0,30.32,WNW,288,8.7,13.8,52,0.00,,,0.00,TxWx,2013-04-02 05:48:00,
2013-04-02 00:53:00,31.7,16.0,30.32,WNW,299,7.8,8.4,53,0.00,,,0.00,TxWx,2013-04-02 05:53:00,
2013-04-02 00:58:00,31.3,16.0,30.32,WNW,287,8.1,9.0,55,0.00,,,0.00,TxWx,2013-04-02 05:58:00,
2013-04-02 01:03:00,31.4,15.0,30.32,WNW,290,7.5,7.5,53,0.00,,,0.00,TxWx,2013-04-02 06:03:00,
2013-04-02 01:08:00,31.3,15.0,30.32,WNW,289,6.6,6.6,53,0.00,,,0.00,TxWx,2013-04-02 06:08:00,
2013-04-02 01:13:00,31.3,15.0,30.33,WNW,289,6.3,7.2,53,0.00,,,0.00,TxWx,2013-04-02 06:13:00,
2013-04-02 01:18:00,31.3,15.0,30.33,WNW,288,7.8,7.8,53,0.00,,,0.00,TxWx,2013-04-02 06:18:00,
2013-04-02 01:24:00,31.1,15.0,30.33,WNW,296,4.8,5.1,54,0.00,,,0.00,TxWx,2013-04-02 06:24:00,
2013-04-02 01:29:00,31.0,15.0,30.33,WNW,286,9.3,9.3,53,0.00,,,0.00,TxWx,2013-04-02 06:29:00,
2013-04-02 01:34:00,30.8,16.0,30.33,WNW,285,6.6,8.4,55,0.00,,,0.00,TxWx,2013-04-02 06:34:00,
2013-04-02 01:39:00,30.7,15.0,30.33,WNW,285,6.0,6.3,54,0.00,,,0.00,TxWx,2013-04-02 06:39:00,
2013-04-02 01:45:00,30.5,16.0,30.33,WNW,282,8.7,8.7,55,0.00,,,0.00,TxWx,2013-04-02 06:45:00,
2013-04-02 01:50:00,30.6,15.0,30.33,West,277,8.7,9.3,54,0.00,,,0.00,TxWx,2013-04-02 06:50:00,
2013-04-02 01:55:00,30.6,15.0,30.33,WNW,284,8.1,8.1,53,0.00,,,0.00,TxWx,2013-04-02 06:55:00,
2013-04-02 02:00:00,30.6,15.0,30.33,WNW,283,8.4,8.4,53,0.00,,,0.00,TxWx,2013-04-02 07:00:00,
2013-04-02 02:05:00,30.6,15.0,30.33,West,277,10.5,10.5,53,0.00,,,0.00,TxWx,2013-04-02 07:05:00,
2013-04-02 02:10:00,30.4,14.0,30.33,WNW,287,6.3,6.6,54,0.00,,,0.00,TxWx,2013-04-02 07:10:00,
2013-04-02 02:15:00,30.4,14.0,30.33,WNW,289,8.4,8.4,54,0.00,,,0.00,TxWx,2013-04-02 07:15:00,
2013-04-02 02:21:00,30.7,15.0,30.33,WNW,288,13.2,13.2,54,0.00,,,0.00,TxWx,2013-04-02 07:21:00,
2013-04-02 02:26:00,30.4,15.0,30.33,WNW,286,6.9,6.9,56,0.00,,,0.00,TxWx,2013-04-02 07:26:00,
2013-04-02 02:31:00,30.2,15.0,30.33,WNW,292,6.3,6.6,56,0.00,,,0.00,TxWx,2013-04-02 07:31:00,
2013-04-02 02:37:00,30.4,14.0,30.33,WNW,290,8.1,9.3,54,0.00,,,0.00,TxWx,2013-04-02 07:37:00,
2013-04-02 02:42:00,30.2,15.0,30.33,WNW,286,7.8,7.8,55,0.00,,,0.00,TxWx,2013-04-02 07:42:00,
2013-04-02 02:47:00,30.0,15.0,30.33,West,281,8.4,8.4,55,0.00,,,0.00,TxWx,2013-04-02 07:47:00,
2013-04-02 02:53:00,29.8,15.0,30.33,WNW,291,5.1,5.1,56,0.00,,,0.00,TxWx,2013-04-02 07:53:00,
2013-04-02 02:58:00,29.8,15.0,30.33,WNW,290,6.9,6.9,55,0.00,,,0.00,TxWx,2013-04-02 07:58:00,
2013-04-02 03:03:00,29.8,15.0,30.33,WNW,283,6.9,6.9,55,0.00,,,0.00,TxWx,2013-04-02 08:03:00,
2013-04-02 03:08:00,29.4,14.0,30.33,WNW,286,6.3,6.6,57,0.00,,,0.00,TxWx,2013-04-02 08:08:00,
2013-04-02 03:14:00,29.3,14.0,30.33,WNW,293,6.0,6.6,57,0.00,,,0.00,TxWx,2013-04-02 08:14:00,
2013-04-02 03:19:00,29.1,15.0,30.33,WNW,282,6.6,6.6,58,0.00,,,0.00,TxWx,2013-04-02 08:19:00,
2013-04-02 03:24:00,28.9,15.0,30.33,West,274,7.2,7.2,57,0.00,,,0.00,TxWx,2013-04-02 08:24:00,
2013-04-02 03:29:00,29.2,14.0,30.33,West,276,9.9,9.9,57,0.00,,,0.00,TxWx,2013-04-02 08:29:00,
2013-04-02 03:34:00,29.3,15.0,30.33,WNW,286,9.3,9.3,57,0.00,,,0.00,TxWx,2013-04-02 08:34:00,
2013-04-02 03:39:00,29.2,14.0,30.33,West,281,7.5,7.5,57,0.00,,,0.00,TxWx,2013-04-02 08:39:00,
2013-04-02 03:44:00,29.1,14.0,30.33,West,281,8.4,8.4,57,0.00,,,0.00,TxWx,2013-04-02 08:44:00,
2013-04-02 03:50:00,29.0,15.0,30.33,WNW,285,6.3,6.6,57,0.00,,,0.00,TxWx,2013-04-02 08:50:00,
2013-04-02 03:55:00,29.0,15.0,30.33,WNW,286,5.7,6.9,57,0.00,,,0.00,TxWx,2013-04-02 08:55:00,
2013-04-02 04:00:00,29.0,14.0,30.34,West,277,5.4,5.7,57,0.00,,,0.00,TxWx,2013-04-02 09:00:00,
2013-04-02 04:05:00,28.9,15.0,30.34,West,279,7.2,7.2,57,0.00,,,0.00,TxWx,2013-04-02 09:05:00,
2013-04-02 04:10:00,28.9,14.0,30.34,West,278,6.9,6.9,57,0.00,,,0.00,TxWx,2013-04-02 09:10:00,
2013-04-02 04:15:00,28.9,14.0,30.34,WNW,282,6.0,6.6,56,0.00,,,0.00,TxWx,2013-04-02 09:15:00,
2013-04-02 04:20:00,28.6,14.0,30.34,West,280,4.2,4.2,56,0.00,,,0.00,TxWx,2013-04-02 09:20:00,
2013-04-02 04:25:00,29.0,14.0,30.34,West,280,7.5,7.5,55,0.00,,,0.00,TxWx,2013-04-02 09:25:00,
2013-04-02 04:31:00,28.6,14.0,30.34,WNW,289,5.7,6.6,56,0.00,,,0.00,TxWx,2013-04-02 09:31:00,
2013-04-02 04:37:00,28.3,14.0,30.34,WNW,288,5.1,5.1,57,0.00,,,0.00,TxWx,2013-04-02 09:37:00,
2013-04-02 04:42:00,28.2,14.0,30.35,West,277,4.8,4.8,57,0.00,,,0.00,TxWx,2013-04-02 09:42:00,
2013-04-02 04:47:00,28.4,13.0,30.35,West,259,4.8,4.8,56,0.00,,,0.00,TxWx,2013-04-02 09:47:00,
2013-04-02 04:53:00,28.2,13.0,30.35,WSW,248,2.4,2.4,56,0.00,,,0.00,TxWx,2013-04-02 09:53:00,
2013-04-02 04:58:00,27.9,13.0,30.35,WSW,252,3.9,4.2,56,0.00,,,0.00,TxWx,2013-04-02 09:58:00,
2013-04-02 05:03:00,27.7,13.0,30.35,WSW,244,3.3,3.3,56,0.00,,,0.00,TxWx,2013-04-02 10:03:00,
2013-04-02 05:08:00,27.5,13.0,30.35,WSW,247,2.7,3.0,56,0.00,,,0.00,TxWx,2013-04-02 10:08:00,
2013-04-02 05:13:00,27.4,12.0,30.36,WSW,250,2.7,3.0,56,0.00,,,0.00,TxWx,2013-04-02 10:13:00,
2013-04-02 05:18:00,27.3,12.0,30.36,WSW,252,1.8,2.1,56,0.00,,,0.00,TxWx,2013-04-02 10:18:00,
2013-04-02 05:23:00,27.1,12.0,30.36,WSW,244,2.4,2.4,56,0.00,,,0.00,TxWx,2013-04-02 10:23:00,
2013-04-02 05:28:00,27.2,12.0,30.36,WSW,258,3.3,3.9,56,0.00,,,0.00,TxWx,2013-04-02 10:28:00,
2013-04-02 05:34:00,27.2,12.0,30.36,WSW,252,1.8,2.1,56,0.00,,,0.00,TxWx,2013-04-02 10:34:00,
2013-04-02 05:39:00,27.2,12.0,30.36,West,271,3.0,3.3,55,0.00,,,0.00,TxWx,2013-04-02 10:39:00,
2013-04-02 05:44:00,27.2,12.0,30.36,WSW,245,2.1,2.1,55,0.00,,,0.00,TxWx,2013-04-02 10:44:00,
2013-04-02 05:49:00,27.2,12.0,30.36,West,260,1.5,1.5,55,0.00,,,0.00,TxWx,2013-04-02 10:49:00,
2013-04-02 05:54:00,26.9,12.0,30.37,WSW,253,2.7,2.7,55,0.00,,,0.00,TxWx,2013-04-02 10:54:00,
2013-04-02 05:59:00,26.7,12.0,30.37,WSW,251,2.7,3.0,56,0.00,,,0.00,TxWx,2013-04-02 10:59:00,
2013-04-02 06:04:00,26.6,12.0,30.37,WSW,242,3.0,3.0,56,0.00,,,0.00,TxWx,2013-04-02 11:04:00,
2013-04-02 06:10:00,26.5,12.0,30.37,WSW,245,4.5,4.5,56,0.00,,,0.00,TxWx,2013-04-02 11:10:00,
2013-04-02 06:15:00,26.3,12.0,30.37,WSW,251,4.8,5.7,57,0.00,,,0.00,TxWx,2013-04-02 11:15:00,
2013-04-02 06:20:00,26.1,12.0,30.37,WSW,240,4.2,4.2,57,0.00,,,0.00,TxWx,2013-04-02 11:20:00,
2013-04-02 06:25:00,26.1,12.0,30.37,WSW,245,4.5,4.8,58,0.00,,,0.00,TxWx,2013-04-02 11:25:00,
2013-04-02 06:30:00,26.1,12.0,30.38,SW,231,3.3,3.3,58,0.00,,,0.00,TxWx,2013-04-02 11:30:00,
2013-04-02 06:35:00,26.1,12.0,30.38,SW,235,3.3,3.6,58,0.00,,,0.00,TxWx,2013-04-02 11:35:00,
2013-04-02 06:41:00,26.0,12.0,30.38,WSW,240,1.5,2.1,58,0.00,,,0.00,TxWx,2013-04-02 11:41:00,
2013-04-02 06:46:00,25.9,12.0,30.38,WSW,237,2.1,2.4,58,0.00,,,0.00,TxWx,2013-04-02 11:46:00,
2013-04-02 06:51:00,25.9,12.0,30.38,WSW,247,2.7,2.7,58,0.00,,,0.00,TxWx,2013-04-02 11:51:00,
2013-04-02 06:57:00,25.9,12.0,30.38,WSW,248,3.3,3.3,58,0.00,,,0.00,TxWx,2013-04-02 11:57:00,
2013-04-02 07:02:00,26.0,12.0,30.39,WSW,244,4.2,4.2,58,0.00,,,0.00,TxWx,2013-04-02 12:02:00,
2013-04-02 07:07:00,26.0,12.0,30.39,WSW,244,4.5,4.5,59,0.00,,,0.00,TxWx,2013-04-02 12:07:00,
2013-04-02 07:12:00,26.0,12.0,30.39,WSW,242,2.4,3.0,59,0.00,,,0.00,TxWx,2013-04-02 12:12:00,
2013-04-02 07:17:00,26.1,12.0,30.39,WSW,256,3.6,3.6,59,0.00,,,0.00,TxWx,2013-04-02 12:17:00,
2013-04-02 07:23:00,26.3,13.0,30.39,WSW,254,4.2,4.5,59,0.00,,,0.00,TxWx,2013-04-02 12:23:00,
2013-04-02 07:28:00,26.7,14.0,30.39,SW,233,2.1,2.1,60,0.00,,,0.00,TxWx,2013-04-02 12:28:00,
2013-04-02 07:33:00,27.1,14.0,30.39,WSW,253,3.3,3.3,60,0.00,,,0.00,TxWx,2013-04-02 12:33:00,
2013-04-02 07:39:00,27.5,14.0,30.40,WSW,249,3.3,3.9,60,0.00,,,0.00,TxWx,2013-04-02 12:39:00,
2013-04-02 07:44:00,27.9,15.0,30.40,WSW,252,3.0,3.0,60,0.00,,,0.00,TxWx,2013-04-02 12:44:00,
2013-04-02 07:49:00,28.4,15.0,30.40,West,264,4.8,4.8,60,0.00,,,0.00,TxWx,2013-04-02 12:49:00,
2013-04-02 07:54:00,28.6,16.0,30.40,West,268,5.7,6.0,60,0.00,,,0.00,TxWx,2013-04-02 12:54:00,
2013-04-02 08:00:00,28.7,15.0,30.40,West,266,3.0,3.6,59,0.00,,,0.00,TxWx,2013-04-02 13:00:00,
2013-04-02 08:05:00,28.9,15.0,30.41,West,264,8.4,8.4,59,0.00,,,0.00,TxWx,2013-04-02 13:05:00,
2013-04-02 08:10:00,29.1,15.0,30.41,West,265,6.6,7.2,59,0.00,,,0.00,TxWx,2013-04-02 13:10:00,
2013-04-02 08:15:00,29.1,15.0,30.41,West,261,6.3,7.2,58,0.00,,,0.00,TxWx,2013-04-02 13:15:00,
2013-04-02 08:20:00,29.7,16.0,30.41,West,261,3.9,4.2,58,0.00,,,0.00,TxWx,2013-04-02 13:20:00,
2013-04-02 08:25:00,30.1,16.0,30.41,West,266,3.3,3.3,58,0.00,,,0.00,TxWx,2013-04-02 13:25:00,
2013-04-02 08:31:00,30.5,15.0,30.41,West,268,6.0,6.3,57,0.00,,,0.00,TxWx,2013-04-02 13:31:00,
2013-04-02 08:36:00,30.7,16.0,30.41,West,268,4.8,5.4,56,0.00,,,0.00,TxWx,2013-04-02 13:36:00,
2013-04-02 08:41:00,31.2,16.0,30.41,WSW,258,5.7,5.7,56,0.00,,,0.00,TxWx,2013-04-02 13:41:00,
2013-04-02 08:46:00,31.0,15.0,30.42,West,260,6.3,6.3,54,0.00,,,0.00,TxWx,2013-04-02 13:46:00,
2013-04-02 08:51:00,31.2,15.0,30.42,West,267,6.0,6.3,54,0.00,,,0.00,TxWx,2013-04-02 13:51:00,
2013-04-02 08:56:00,31.7,16.0,30.42,WSW,252,5.4,5.7,54,0.00,,,0.00,TxWx,2013-04-02 13:56:00,
2013-04-02 09:02:00,32.0,15.0,30.42,West,276,6.6,7.2,52,0.00,,,0.00,TxWx,2013-04-02 14:02:00,
2013-04-02 09:07:00,32.0,15.0,30.42,West,268,6.9,7.2,52,0.00,,,0.00,TxWx,2013-04-02 14:07:00,
2013-04-02 09:12:00,32.5,15.0,30.42,West,267,10.2,10.8,51,0.00,,,0.00,TxWx,2013-04-02 14:12:00,
2013-04-02 09:17:00,32.5,14.0,30.42,West,269,7.2,7.5,49,0.00,,,0.00,TxWx,2013-04-02 14:17:00,
2013-04-02 09:23:00,33.1,14.0,30.42,West,268,5.7,5.7,48,0.00,,,0.00,TxWx,2013-04-02 14:23:00,
2013-04-02 09:28:00,33.2,15.0,30.42,West,264,3.6,3.6,49,0.00,,,0.00,TxWx,2013-04-02 14:28:00,
2013-04-02 09:33:00,33.2,14.0,30.42,West,279,5.1,5.4,47,0.00,,,0.00,TxWx,2013-04-02 14:33:00,
2013-04-02 09:38:00,33.8,15.0,30.42,WSW,256,5.4,6.3,47,0.00,,,0.00,TxWx,2013-04-02 14:38:00,
2013-04-02 09:43:00,34.4,14.0,30.42,West,269,4.8,4.8,46,0.00,,,0.00,TxWx,2013-04-02 14:43:00,
2013-04-02 09:49:00,34.1,13.0,30.42,West,278,4.8,4.8,43,0.00,,,0.00,TxWx,2013-04-02 14:49:00,
2013-04-02 09:54:00,34.2,12.0,30.42,West,265,9.6,9.6,41,0.00,,,0.00,TxWx,2013-04-02 14:54:00,
2013-04-02 09:59:00,34.6,13.0,30.42,WSW,242,3.6,3.9,43,0.00,,,0.00,TxWx,2013-04-02 14:59:00,
2013-04-02 10:04:00,34.9,13.0,30.42,West,266,4.8,5.1,42,0.00,,,0.00,TxWx,2013-04-02 15:04:00,
2013-04-02 10:09:00,34.8,10.0,30.42,WNW,301,6.3,6.3,37,0.00,,,0.00,TxWx,2013-04-02 15:09:00,
2013-04-02 10:15:00,35.5,12.0,30.42,West,261,6.0,6.9,40,0.00,,,0.00,TxWx,2013-04-02 15:15:00,
2013-04-02 10:20:00,35.4,7.0,30.42,WNW,290,9.9,10.5,33,0.00,,,0.00,TxWx,2013-04-02 15:20:00,
2013-04-02 10:25:00,35.4,8.0,30.42,WNW,301,10.2,10.8,34,0.00,,,0.00,TxWx,2013-04-02 15:25:00,
2013-04-02 10:30:00,36.3,9.0,30.42,WNW,289,8.7,8.7,33,0.00,,,0.00,TxWx,2013-04-02 15:30:00,
2013-04-02 10:36:00,36.6,11.0,30.42,WSW,257,6.3,6.9,35,0.00,,,0.00,TxWx,2013-04-02 15:36:00,
2013-04-02 10:42:00,35.7,8.0,30.42,West,276,14.1,14.7,32,0.00,,,0.00,TxWx,2013-04-02 15:42:00,
2013-04-02 10:47:00,35.9,8.0,30.41,WNW,287,3.0,3.3,32,0.00,,,0.00,TxWx,2013-04-02 15:47:00,
2013-04-02 10:53:00,36.4,8.0,30.42,West,280,5.4,5.4,32,0.00,,,0.00,TxWx,2013-04-02 15:53:00,
2013-04-02 10:58:00,36.9,9.0,30.42,West,276,9.0,9.0,32,0.00,,,0.00,TxWx,2013-04-02 15:58:00,
2013-04-02 11:03:00,37.1,7.0,30.42,West,267,8.4,9.0,30,0.00,,,0.00,TxWx,2013-04-02 16:03:00,
2013-04-02 11:08:00,37.2,7.0,30.42,West,272,9.0,11.7,29,0.00,,,0.00,TxWx,2013-04-02 16:08:00,
2013-04-02 11:13:00,36.6,6.0,30.42,West,274,6.3,6.3,29,0.00,,,0.00,TxWx,2013-04-02 16:13:00,
2013-04-02 11:18:00,36.6,7.0,30.42,West,272,9.9,9.9,30,0.00,,,0.00,TxWx,2013-04-02 16:18:00,
2013-04-02 11:24:00,37.3,6.0,30.41,WNW,284,7.2,7.2,28,0.00,,,0.00,TxWx,2013-04-02 16:24:00,
2013-04-02 11:29:00,37.8,9.0,30.41,WSW,258,9.6,9.6,31,0.00,,,0.00,TxWx,2013-04-02 16:29:00,
2013-04-02 11:34:00,38.2,8.0,30.41,West,263,10.5,10.5,29,0.00,,,0.00,TxWx,2013-04-02 16:34:00,
2013-04-02 11:40:00,38.4,7.0,30.41,West,273,8.1,8.1,28,0.00,,,0.00,TxWx,2013-04-02 16:40:00,
2013-04-02 11:45:00,37.9,6.0,30.41,West,277,13.2,14.1,28,0.00,,,0.00,TxWx,2013-04-02 16:45:00,
2013-04-02 11:50:00,37.5,6.0,30.41,West,265,6.9,7.5,29,0.00,,,0.00,TxWx,2013-04-02 16:50:00,
2013-04-02 11:55:00,38.6,9.0,30.41,West,278,7.8,7.8,30,0.00,,,0.00,TxWx,2013-04-02 16:55:00,
2013-04-02 12:00:00,38.5,9.0,30.40,WSW,253,4.5,4.8,30,0.00,,,0.00,TxWx,2013-04-02 17:00:00,
2013-04-02 12:05:00,38.3,8.0,30.41,West,265,8.1,9.0,30,0.00,,,0.00,TxWx,2013-04-02 17:05:00,
2013-04-02 12:11:00,38.2,8.0,30.40,West,261,2.4,3.0,29,0.00,,,0.00,TxWx,2013-04-02 17:11:00,
2013-04-02 12:16:00,39.0,8.0,30.40,West,263,9.3,10.5,29,0.00,,,0.00,TxWx,2013-04-02 17:16:00,
2013-04-02 12:22:00,39.1,8.0,30.40,WSW,249,3.0,3.6,29,0.00,,,0.00,TxWx,2013-04-02 17:22:00,
2013-04-02 12:27:00,39.0,6.0,30.40,West,278,9.0,10.2,27,0.00,,,0.00,TxWx,2013-04-02 17:27:00,
2013-04-02 12:32:00,39.7,8.0,30.40,WNW,289,12.3,13.8,28,0.00,,,0.00,TxWx,2013-04-02 17:32:00,
2013-04-02 12:37:00,39.5,8.0,30.40,West,271,10.2,10.2,27,0.00,,,0.00,TxWx,2013-04-02 17:37:00,
2013-04-02 12:42:00,39.5,7.0,30.40,WSW,258,5.7,5.7,28,0.00,,,0.00,TxWx,2013-04-02 17:42:00,
2013-04-02 12:48:00,39.9,8.0,30.39,WNW,288,9.3,9.6,27,0.00,,,0.00,TxWx,2013-04-02 17:48:00,
2013-04-02 12:54:00,39.9,8.0,30.39,West,279,8.1,8.1,27,0.00,,,0.00,TxWx,2013-04-02 17:54:00,
2013-04-02 12:59:00,39.4,6.0,30.39,West,276,6.0,6.3,27,0.00,,,0.00,TxWx,2013-04-02 17:59:00,
2013-04-02 13:04:00,39.6,8.0,30.39,SW,227,2.7,2.7,28,0.00,,,0.00,TxWx,2013-04-02 18:04:00,
2013-04-02 13:09:00,40.6,9.0,30.39,WNW,282,11.4,12.0,28,0.00,,,0.00,TxWx,2013-04-02 18:09:00,
2013-04-02 13:14:00,40.9,9.0,30.39,West,279,10.8,10.8,27,0.00,,,0.00,TxWx,2013-04-02 18:14:00,
2013-04-02 13:19:00,40.2,7.0,30.38,West,274,9.9,9.9,26,0.00,,,0.00,TxWx,2013-04-02 18:19:00,
2013-04-02 13:24:00,41.2,9.0,30.38,WNW,300,5.7,6.3,28,0.00,,,0.00,TxWx,2013-04-02 18:24:00,
2013-04-02 13:29:00,41.6,10.0,30.38,WNW,282,21.9,23.4,28,0.00,,,0.00,TxWx,2013-04-02 18:29:00,
2013-04-02 13:34:00,41.5,10.0,30.38,West,278,9.6,12.6,28,0.00,,,0.00,TxWx,2013-04-02 18:34:00,
2013-04-02 13:39:00,40.8,9.0,30.38,WNW,282,11.7,12.3,28,0.00,,,0.00,TxWx,2013-04-02 18:39:00,
2013-04-02 13:45:00,41.1,8.0,30.37,West,279,9.3,10.8,26,0.00,,,0.00,TxWx,2013-04-02 18:45:00,
2013-04-02 13:50:00,40.8,8.0,30.37,West,280,14.1,14.1,27,0.00,,,0.00,TxWx,2013-04-02 18:50:00,
2013-04-02 13:55:00,40.7,8.0,30.37,WNW,287,6.9,6.9,27,0.00,,,0.00,TxWx,2013-04-02 18:55:00,
2013-04-02 14:00:00,41.7,9.0,30.37,West,262,12.9,14.7,26,0.00,,,0.00,TxWx,2013-04-02 19:00:00,
2013-04-02 14:06:00,42.4,8.0,30.37,West,265,7.8,10.5,26,0.00,,,0.00,TxWx,2013-04-02 19:06:00,
2013-04-02 14:11:00,40.9,6.0,30.37,WNW,284,6.6,6.6,24,0.00,,,0.00,TxWx,2013-04-02 19:11:00,
2013-04-02 14:17:00,41.4,8.0,30.37,West,280,4.2,5.4,26,0.00,,,0.00,TxWx,2013-04-02 19:17:00,
2013-04-02 14:22:00,42.1,11.0,30.37,West,280,12.6,13.2,29,0.00,,,0.00,TxWx,2013-04-02 19:22:00,
2013-04-02 14:28:00,42.5,11.0,30.37,West,269,10.2,11.7,29,0.00,,,0.00,TxWx,2013-04-02 19:28:00,
2013-04-02 14:33:00,42.6,9.0,30.36,WSW,255,3.6,4.5,26,0.00,,,0.00,TxWx,2013-04-02 19:33:00,
2013-04-02 14:38:00,42.8,10.0,30.36,West,263,4.5,4.8,27,0.00,,,0.00,TxWx,2013-04-02 19:38:00,
2013-04-02 14:44:00,42.4,9.0,30.36,WSW,255,4.5,5.7,26,0.00,,,0.00,TxWx,2013-04-02 19:44:00,
2013-04-02 14:49:00,41.9,8.0,30.36,WNW,285,8.1,8.1,26,0.00,,,0.00,TxWx,2013-04-02 19:49:00,
2013-04-02 14:54:00,42.2,8.0,30.35,SW,232,7.5,7.5,25,0.00,,,0.00,TxWx,2013-04-02 19:54:00,
2013-04-02 14:59:00,42.2,8.0,30.35,West,267,4.8,5.1,25,0.00,,,0.00,TxWx,2013-04-02 19:59:00,
2013-04-02 15:04:00,41.8,9.0,30.35,WNW,283,16.8,16.8,27,0.00,,,0.00,TxWx,2013-04-02 20:04:00,
2013-04-02 15:10:00,42.1,8.0,30.35,West,278,14.1,14.1,26,0.00,,,0.00,TxWx,2013-04-02 20:10:00,
2013-04-02 15:16:00,41.9,10.0,30.35,WNW,300,8.1,8.1,28,0.00,,,0.00,TxWx,2013-04-02 20:16:00,
2013-04-02 15:21:00,41.5,8.0,30.35,WNW,290,8.1,8.1,27,0.00,,,0.00,TxWx,2013-04-02 20:21:00,
2013-04-02 15:26:00,41.3,9.0,30.35,NW,305,16.2,16.2,28,0.00,,,0.00,TxWx,2013-04-02 20:26:00,
2013-04-02 15:31:00,41.2,10.0,30.35,WNW,301,8.7,9.0,29,0.00,,,0.00,TxWx,2013-04-02 20:31:00,
2013-04-02 15:36:00,41.3,10.0,30.35,WNW,303,18.3,18.6,29,0.00,,,0.00,TxWx,2013-04-02 20:36:00,
2013-04-02 15:43:00,41.5,9.0,30.35,WNW,300,7.2,7.2,27,0.00,,,0.00,TxWx,2013-04-02 20:43:00,
2013-04-02 15:48:00,41.5,9.0,30.35,WNW,295,8.7,8.7,28,0.00,,,0.00,TxWx,2013-04-02 20:48:00,
2013-04-02 15:54:00,42.2,9.0,30.35,West,278,12.9,12.9,27,0.00,,,0.00,TxWx,2013-04-02 20:54:00,
2013-04-02 15:59:00,42.3,9.0,30.36,WNW,284,8.1,8.4,27,0.00,,,0.00,TxWx,2013-04-02 20:59:00,
2013-04-02 16:04:00,41.8,9.0,30.36,WNW,293,13.8,15.6,26,0.00,,,0.00,TxWx,2013-04-02 21:04:00,
2013-04-02 16:10:00,41.6,8.0,30.36,West,278,9.6,10.2,26,0.00,,,0.00,TxWx,2013-04-02 21:10:00,
2013-04-02 16:15:00,42.0,11.0,30.36,WNW,289,10.5,10.8,29,0.00,,,0.00,TxWx,2013-04-02 21:15:00,
2013-04-02 16:20:00,42.1,11.0,30.36,WNW,297,11.4,13.8,29,0.00,,,0.00,TxWx,2013-04-02 21:20:00,
2013-04-02 16:25:00,41.5,9.0,30.37,WNW,293,11.1,11.1,27,0.00,,,0.00,TxWx,2013-04-02 21:25:00,
2013-04-02 16:31:00,41.6,10.0,30.37,NW,307,10.8,10.8,28,0.00,,,0.00,TxWx,2013-04-02 21:31:00,
2013-04-02 16:37:00,41.6,11.0,30.37,WNW,289,9.9,9.9,29,0.00,,,0.00,TxWx,2013-04-02 21:37:00,
2013-04-02 16:43:00,41.6,11.0,30.37,WNW,286,8.1,8.4,30,0.00,,,0.00,TxWx,2013-04-02 21:43:00,
2013-04-02 16:49:00,41.5,9.0,30.37,NW,308,9.0,9.9,28,0.00,,,0.00,TxWx,2013-04-02 21:49:00,
2013-04-02 16:54:00,40.8,9.0,30.37,WNW,300,11.7,12.0,28,0.00,,,0.00,TxWx,2013-04-02 21:54:00,
2013-04-02 16:59:00,41.1,10.0,30.38,NW,304,11.1,11.1,29,0.00,,,0.00,TxWx,2013-04-02 21:59:00,
2013-04-02 17:05:00,40.3,10.0,30.38,WNW,299,18.9,18.9,30,0.00,,,0.00,TxWx,2013-04-02 22:05:00,
2013-04-02 17:10:00,40.0,10.0,30.38,NW,307,11.7,13.8,30,0.00,,,0.00,TxWx,2013-04-02 22:10:00,
2013-04-02 17:15:00,40.0,10.0,30.38,WNW,299,8.4,9.3,30,0.00,,,0.00,TxWx,2013-04-02 22:15:00,
2013-04-02 17:20:00,39.8,10.0,30.38,NW,309,6.3,7.2,31,0.00,,,0.00,TxWx,2013-04-02 22:20:00,
2013-04-02 17:25:00,39.9,10.0,30.38,WNW,293,8.1,8.1,31,0.00,,,0.00,TxWx,2013-04-02 22:25:00,
2013-04-02 17:30:00,40.0,10.0,30.38,WNW,301,9.3,10.2,30,0.00,,,0.00,TxWx,2013-04-02 22:30:00,
2013-04-02 17:36:00,39.8,9.0,30.38,NW,304,10.5,11.7,29,0.00,,,0.00,TxWx,2013-04-02 22:36:00,
2013-04-02 17:41:00,39.6,10.0,30.38,WNW,290,9.0,9.0,31,0.00,,,0.00,TxWx,2013-04-02 22:41:00,
2013-04-02 17:47:00,39.6,11.0,30.38,NW,309,12.6,12.6,32,0.00,,,0.00,TxWx,2013-04-02 22:47:00,
2013-04-02 17:52:00,39.6,10.0,30.38,WNW,296,9.3,9.3,30,0.00,,,0.00,TxWx,2013-04-02 22:52:00,
2013-04-02 17:57:00,39.8,9.0,30.39,WNW,299,7.8,8.7,29,0.00,,,0.00,TxWx,2013-04-02 22:57:00,
2013-04-02 18:02:00,40.1,9.0,30.38,WNW,292,10.2,10.5,29,0.00,,,0.00,TxWx,2013-04-02 23:02:00,
2013-04-02 18:08:00,39.8,9.0,30.38,WNW,297,8.4,8.4,29,0.00,,,0.00,TxWx,2013-04-02 23:08:00,
2013-04-02 18:14:00,39.8,10.0,30.38,NW,309,6.0,6.0,30,0.00,,,0.00,TxWx,2013-04-02 23:14:00,
2013-04-02 18:19:00,39.7,10.0,30.39,WNW,283,7.2,7.2,31,0.00,,,0.00,TxWx,2013-04-02 23:19:00,
2013-04-02 18:24:00,39.4,10.0,30.39,NW,312,5.7,6.0,31,0.00,,,0.00,TxWx,2013-04-02 23:24:00,
2013-04-02 18:29:00,39.6,11.0,30.39,WNW,298,6.3,6.3,32,0.00,,,0.00,TxWx,2013-04-02 23:29:00,
2013-04-02 18:34:00,39.1,10.0,30.39,WNW,290,3.9,3.9,32,0.00,,,0.00,TxWx,2013-04-02 23:34:00,
2013-04-02 18:39:00,38.9,10.0,30.39,WNW,301,6.3,6.6,31,0.00,,,0.00,TxWx,2013-04-02 23:39:00,
2013-04-02 18:44:00,38.8,10.0,30.39,WNW,302,5.7,5.7,32,0.00,,,0.00,TxWx,2013-04-02 23:44:00,
2013-04-02 18:49:00,38.5,10.0,30.39,WNW,302,3.3,3.6,33,0.00,,,0.00,TxWx,2013-04-02 23:49:00,
2013-04-02 18:55:00,38.2,11.0,30.39,WNW,289,3.6,3.6,34,0.00,,,0.00,TxWx,2013-04-02 23:55:00,
2013-04-02 19:00:00,38.1,11.0,30.39,WNW,290,3.3,3.3,34,0.00,,,0.00,TxWx,2013-04-03 00:00:00,
2013-04-02 19:05:00,37.8,12.0,30.39,WNW,295,3.0,3.0,35,0.00,,,0.00,TxWx,2013-04-03 00:05:00,
2013-04-02 19:10:00,37.6,12.0,30.39,WNW,295,3.6,3.6,35,0.00,,,0.00,TxWx,2013-04-03 00:10:00,
2013-04-02 19:15:00,37.3,11.0,30.39,WNW,289,1.5,1.5,36,0.00,,,0.00,TxWx,2013-04-03 00:15:00,
2013-04-02 19:20:00,37.0,11.0,30.39,NW,310,2.4,2.4,36,0.00,,,0.00,TxWx,2013-04-03 00:20:00,
2013-04-02 19:26:00,36.8,12.0,30.40,WNW,290,1.8,1.8,37,0.00,,,0.00,TxWx,2013-04-03 00:26:00,
2013-04-02 19:31:00,36.5,12.0,30.40,NW,311,2.1,2.1,38,0.00,,,0.00,TxWx,2013-04-03 00:31:00,
2013-04-02 19:37:00,36.2,12.0,30.40,WNW,301,0.9,0.9,39,0.00,,,0.00,TxWx,2013-04-03 00:37:00,
2013-04-02 19:42:00,35.9,12.0,30.40,WNW,302,0.3,0.6,38,0.00,,,0.00,TxWx,2013-04-03 00:42:00,
2013-04-02 19:47:00,35.8,12.0,30.40,WNW,288,0.9,1.5,39,0.00,,,0.00,TxWx,2013-04-03 00:47:00,
2013-04-02 19:53:00,35.8,13.0,30.40,WNW,292,1.2,1.2,40,0.00,,,0.00,TxWx,2013-04-03 00:53:00,
2013-04-02 19:58:00,35.6,14.0,30.40,WNW,299,0.6,0.6,41,0.00,,,0.00,TxWx,2013-04-03 00:58:00,
2013-04-02 20:03:00,35.3,13.0,30.40,WNW,299,0.3,0.6,41,0.00,,,0.00,TxWx,2013-04-03 01:03:00,
2013-04-02 20:08:00,34.6,12.0,30.40,WNW,302,0.6,0.9,40,0.00,,,0.00,TxWx,2013-04-03 01:08:00,
2013-04-02 20:14:00,34.3,11.0,30.41,NW,313,0.3,0.6,41,0.00,,,0.00,TxWx,2013-04-03 01:14:00,
2013-04-02 20:19:00,33.5,11.0,30.41,SSW,207,0.9,0.9,41,0.00,,,0.00,TxWx,2013-04-03 01:19:00,
2013-04-02 20:24:00,33.3,11.0,30.41,SSE,161,1.2,1.5,41,0.00,,,0.00,TxWx,2013-04-03 01:24:00,
2013-04-02 20:29:00,33.5,11.0,30.41,NW,317,1.5,1.8,41,0.00,,,0.00,TxWx,2013-04-03 01:29:00,
2013-04-02 20:34:00,33.8,11.0,30.42,NNW,335,2.7,2.7,41,0.00,,,0.00,TxWx,2013-04-03 01:34:00,
2013-04-02 20:40:00,33.9,11.0,30.42,East,87,0.9,0.9,40,0.00,,,0.00,TxWx,2013-04-03 01:40:00,
2013-04-02 20:45:00,33.8,11.0,30.42,NW,314,2.1,2.1,40,0.00,,,0.00,TxWx,2013-04-03 01:45:00,
2013-04-02 20:50:00,33.8,11.0,30.42,NW,317,1.2,1.2,40,0.00,,,0.00,TxWx,2013-04-03 01:50:00,
2013-04-02 20:55:00,33.6,11.0,30.42,NW,312,1.2,1.2,40,0.00,,,0.00,TxWx,2013-04-03 01:55:00,
2013-04-02 21:00:00,33.3,10.0,30.42,NW,320,0.9,0.9,40,0.00,,,0.00,TxWx,2013-04-03 02:00:00,
2013-04-02 21:05:00,33.0,11.0,30.42,NW,311,1.5,1.5,41,0.00,,,0.00,TxWx,2013-04-03 02:05:00,
2013-04-02 21:10:00,32.7,12.0,30.43,NW,304,1.8,1.8,43,0.00,,,0.00,TxWx,2013-04-03 02:10:00,
2013-04-02 21:15:00,33.0,11.0,30.43,NW,317,0.9,0.9,41,0.00,,,0.00,TxWx,2013-04-03 02:15:00,
2013-04-02 21:21:00,32.7,11.0,30.43,SSE,160,0.6,0.6,41,0.00,,,0.00,TxWx,2013-04-03 02:21:00,
2013-04-02 21:27:00,32.7,11.0,30.43,NW,318,2.1,2.1,41,0.00,,,0.00,TxWx,2013-04-03 02:27:00,
2013-04-02 21:32:00,33.1,11.0,30.43,SSE,165,1.2,1.2,41,0.00,,,0.00,TxWx,2013-04-03 02:32:00,
2013-04-02 21:37:00,33.0,11.0,30.43,South,169,0.3,0.3,41,0.00,,,0.00,TxWx,2013-04-03 02:37:00,
2013-04-02 21:43:00,32.4,10.0,30.43,South,182,0.6,0.9,42,0.00,,,0.00,TxWx,2013-04-03 02:43:00,
2013-04-02 21:48:00,32.3,10.0,30.43,South,185,1.2,1.2,42,0.00,,,0.00,TxWx,2013-04-03 02:48:00,
2013-04-02 21:53:00,32.2,10.0,30.44,South,173,0.9,0.9,42,0.00,,,0.00,TxWx,2013-04-03 02:53:00,
2013-04-02 21:58:00,32.2,10.0,30.44,South,177,1.2,1.2,42,0.00,,,0.00,TxWx,2013-04-03 02:58:00,
2013-04-02 22:03:00,31.7,10.0,30.44,South,180,0.9,1.2,42,0.00,,,0.00,TxWx,2013-04-03 03:03:00,
2013-04-02 22:08:00,31.4,10.0,30.44,South,184,0.9,1.2,43,0.00,,,0.00,TxWx,2013-04-03 03:08:00,
2013-04-02 22:13:00,31.1,10.0,30.44,South,190,0.9,0.9,43,0.00,,,0.00,TxWx,2013-04-03 03:13:00,
2013-04-02 22:19:00,31.0,11.0,30.44,South,188,1.2,1.2,45,0.00,,,0.00,TxWx,2013-04-03 03:19:00,
2013-04-02 22:24:00,30.9,11.0,30.44,South,191,0.9,0.9,45,0.00,,,0.00,TxWx,2013-04-03 03:24:00,
2013-04-02 22:30:00,31.2,11.0,30.44,South,185,1.8,1.8,45,0.00,,,0.00,TxWx,2013-04-03 03:30:00,
2013-04-02 22:35:00,31.5,12.0,30.44,South,182,1.2,1.2,45,0.00,,,0.00,TxWx,2013-04-03 03:35:00,
2013-04-02 22:40:00,31.7,12.0,30.44,SSE,163,1.5,1.5,45,0.00,,,0.00,TxWx,2013-04-03 03:40:00,
2013-04-02 22:46:00,31.4,11.0,30.44,South,178,0.6,0.6,44,0.00,,,0.00,TxWx,2013-04-03 03:46:00,
2013-04-02 22:51:00,30.9,11.0,30.44,SSW,198,0.9,0.9,45,0.00,,,0.00,TxWx,2013-04-03 03:51:00,
2013-04-02 22:57:00,30.6,11.0,30.44,SSW,204,0.3,0.6,45,0.00,,,0.00,TxWx,2013-04-03 03:57:00,
2013-04-02 23:00:00,30.5,11.0,30.44,SSW,204,0.0,0.3,46,0.00,,,0.00,TxWx,2013-04-03 04:00:00,
2013-04-02 23:01:00,30.5,10.0,30.44,SSW,205,0.3,0.3,46,0.00,,,0.00,TxWx,2013-04-03 04:01:00,
2013-04-02 23:06:00,30.1,10.0,30.45,SSW,204,0.3,0.3,46,0.00,,,0.00,TxWx,2013-04-03 04:06:00,
2013-04-02 23:11:00,29.7,11.0,30.44,SW,226,1.5,1.5,47,0.00,,,0.00,TxWx,2013-04-03 04:11:00,
2013-04-02 23:16:00,29.7,12.0,30.45,SW,221,1.5,1.5,48,0.00,,,0.00,TxWx,2013-04-03 04:16:00,
2013-04-02 23:22:00,29.7,12.0,30.45,SW,221,1.5,1.5,50,0.00,,,0.00,TxWx,2013-04-03 04:22:00,
2013-04-02 23:27:00,29.7,12.0,30.44,SW,227,1.5,1.5,50,0.00,,,0.00,TxWx,2013-04-03 04:27:00,
2013-04-02 23:32:00,29.5,13.0,30.45,SW,226,1.2,1.2,50,0.00,,,0.00,TxWx,2013-04-03 04:32:00,
2013-04-02 23:37:00,29.2,12.0,30.44,SW,222,1.2,1.2,51,0.00,,,0.00,TxWx,2013-04-03 04:37:00,
2013-04-02 23:42:00,28.9,12.0,30.44,SW,220,1.5,1.5,51,0.00,,,0.00,TxWx,2013-04-03 04:42:00,
2013-04-02 23:47:00,28.7,13.0,30.45,SW,217,0.6,0.9,53,0.00,,,0.00,TxWx,2013-04-03 04:47:00,
2013-04-02 23:52:00,28.5,12.0,30.45,SW,221,1.8,1.8,54,0.00,,,0.00,TxWx,2013-04-03 04:52:00,
2013-04-02 23:57:00,28.2,14.0,30.45,SW,223,2.1,2.4,57,0.00,,,0.00,TxWx,2013-04-03 04:57:00,